createdAt,value
2022-12-03T00:10:21.272Z,93.3
2022-12-03T00:22:21.237Z,93.6
2022-12-03T00:34:21.301Z,93.0
2022-12-03T00:46:21.886Z,93.7
2022-12-03T00:58:21.277Z,93.2
2022-12-03T01:10:21.307Z,93.5
2022-12-03T01:22:22.093Z,93.4
2022-12-03T01:34:21.200Z,93.4
2022-12-03T01:46:21.415Z,92.4
2022-12-03T01:58:21.273Z,92.6
2022-12-03T02:10:21.287Z,92.6
2022-12-03T02:22:21.251Z,93.4
2022-12-03T02:34:21.194Z,93.5
2022-12-03T02:46:21.246Z,93.2
2022-12-03T02:58:21.298Z,93.0
2022-12-03T03:10:21.267Z,92.3
2022-12-03T03:22:21.194Z,92.1
2022-12-03T03:34:21.215Z,91.8
2022-12-03T03:46:21.280Z,92.5
2022-12-03T03:58:21.287Z,93.7
2022-12-03T04:10:21.183Z,91.8
2022-12-03T04:22:21.200Z,91.1
2022-12-03T04:34:21.206Z,91.3
2022-12-03T04:46:21.244Z,90.3
2022-12-03T04:58:21.195Z,90.9
2022-12-03T05:10:21.213Z,91.3
2022-12-03T05:22:21.209Z,92.1
2022-12-03T05:34:21.214Z,91.8
2022-12-03T05:46:21.320Z,92.5
2022-12-03T05:58:21.210Z,93.5
2022-12-03T06:10:21.215Z,93.4
2022-12-03T06:22:21.211Z,93.6
2022-12-03T06:34:21.344Z,94.0
2022-12-03T06:46:21.415Z,94.0
2022-12-03T06:58:21.254Z,93.8
2022-12-03T07:10:21.290Z,93.5
2022-12-03T07:22:21.192Z,94.1
2022-12-03T07:34:21.324Z,93.8
2022-12-03T07:46:21.277Z,93.3
2022-12-03T07:58:21.264Z,92.3
2022-12-03T08:10:21.273Z,93.0
2022-12-03T08:22:21.409Z,92.5
2022-12-03T08:34:21.270Z,92.4
2022-12-03T08:46:21.323Z,92.3
2022-12-03T08:58:21.204Z,92.8
2022-12-03T09:10:21.194Z,92.9
2022-12-03T09:22:21.235Z,92.8
2022-12-03T09:34:21.198Z,92.3
2022-12-03T09:46:21.323Z,92.8
2022-12-03T09:58:21.240Z,92.8
2022-12-03T10:10:21.202Z,92.6
2022-12-03T10:22:21.201Z,92.3
2022-12-03T10:34:21.307Z,92.9
2022-12-03T10:46:21.420Z,93.0
2022-12-03T10:58:21.325Z,92.9
2022-12-03T11:10:21.189Z,93.5
2022-12-03T11:22:21.196Z,93.5
2022-12-03T11:34:21.256Z,92.8
2022-12-03T11:46:21.294Z,93.0
2022-12-03T11:58:21.307Z,89.6
2022-12-03T12:10:21.281Z,89.7
2022-12-03T12:22:21.196Z,89.1
2022-12-03T12:34:21.212Z,89.3
2022-12-03T12:46:46.057Z,88.4
2022-12-03T12:58:21.276Z,88.9
2022-12-03T13:10:21.199Z,88.8
2022-12-03T13:22:21.426Z,93.2
2022-12-03T13:34:21.200Z,92.7
2022-12-03T13:46:21.430Z,88.9
2022-12-03T13:58:21.199Z,89.3
2022-12-03T14:10:21.200Z,89.4
2022-12-03T14:22:21.198Z,89.1
2022-12-03T14:34:21.314Z,89.1
2022-12-03T14:46:21.270Z,89.6
2022-12-03T14:58:21.217Z,90.0
2022-12-03T15:10:21.199Z,90.1
2022-12-03T15:22:21.241Z,93.8
2022-12-03T15:34:23.186Z,94.2
2022-12-03T15:46:21.266Z,94.3
2022-12-03T15:58:21.272Z,94.6
2022-12-03T16:10:21.261Z,94.5
2022-12-03T16:22:21.208Z,95.0
2022-12-03T16:34:21.261Z,94.8
2022-12-03T16:46:21.317Z,94.7
2022-12-03T16:58:21.387Z,95.1
2022-12-03T17:10:21.338Z,95.2
2022-12-03T17:22:21.205Z,95.0
2022-12-03T17:34:21.308Z,94.8
2022-12-03T17:46:21.423Z,94.8
2022-12-03T17:58:21.195Z,94.7
2022-12-03T18:10:21.606Z,94.7
2022-12-03T18:22:21.195Z,94.8
2022-12-03T18:34:21.297Z,95.0
2022-12-03T18:46:51.975Z,94.9
2022-12-03T18:58:21.315Z,94.8
2022-12-03T19:10:21.531Z,94.8
2022-12-03T19:22:21.221Z,94.6
2022-12-03T19:34:21.344Z,94.8
2022-12-03T19:46:21.384Z,94.9
2022-12-03T19:58:21.316Z,95.5
2022-12-03T20:10:21.563Z,95.4
2022-12-03T20:22:21.226Z,95.5
2022-12-03T20:34:21.278Z,95.3
2022-12-03T20:46:21.367Z,95.0
2022-12-03T20:58:21.199Z,95.0
2022-12-03T21:10:21.456Z,95.2
2022-12-03T21:22:21.252Z,94.9
2022-12-03T21:34:21.546Z,94.8
2022-12-03T21:47:09.264Z,94.7
2022-12-03T21:58:21.198Z,94.6
2022-12-03T22:10:21.416Z,94.4
2022-12-03T22:22:21.191Z,94.2
2022-12-03T22:34:21.261Z,94.3
2022-12-03T22:46:21.367Z,93.4
2022-12-03T22:58:21.290Z,93.5
2022-12-03T23:10:21.595Z,92.7
2022-12-03T23:22:21.200Z,92.7
2022-12-03T23:34:21.353Z,92.6
2022-12-03T23:46:21.382Z,91.9
2022-12-03T23:58:21.524Z,91.8
